Kungrad, Uzbekistan
Current Conditions -  °F | °C
As of 12:30 AM on Tuesday 23 Dec 2014 (Local Time) from UTNN Reporting Station
Clear Clear  
Wind Chill: 16°   Ceiling: Unl
Heat Index: 23°   Visibility: 5mi
Dew Point: 21°   Wind: 6mph
Humidity: 93%   Direction: 110°ESE
Pressure: 30.06"   Gusts: NA
Location:  43.07°N, 58.91°E
Report Text: UTNN 221930Z 11005KT 8000 NSC M05/M06 Q1018 R15/CLRD60 NOSIG
Loading
Personal Weather Stations






























Interactive Weather Map New forecast layout! Learn more

10-Day Weather Forecast

Advertisements
Track Severe Weather on mobile